sensor_id;sensor_type;location;lat;lon;timestamp;P1;durP1;ratioP1;P2;durP2;ratioP2
2840;SDS011;53423;49.224;12.074;2023-04-25T00:02:11;3.90;;;3.60;;
2840;SDS011;53423;49.224;12.074;2023-04-25T00:04:39;3.83;;;3.47;;
2840;SDS011;53423;49.224;12.074;2023-04-25T00:07:08;4.90;;;3.90;;
2840;SDS011;53423;49.224;12.074;2023-04-25T00:09:35;4.67;;;4.07;;
2840;SDS011;53423;49.224;12.074;2023-04-25T00:12:05;4.47;;;4.07;;
2840;SDS011;53423;49.224;12.074;2023-04-25T00:14:33;4.47;;;4.07;;
2840;SDS011;53423;49.224;12.074;2023-04-25T00:17:01;4.20;;;3.90;;
2840;SDS011;53423;49.224;12.074;2023-04-25T00:19:30;3.80;;;3.50;;
2840;SDS011;53423;49.224;12.074;2023-04-25T00:21:58;3.70;;;3.40;;
2840;SDS011;53423;49.224;12.074;2023-04-25T00:24:27;3.90;;;3.60;;
2840;SDS011;53423;49.224;12.074;2023-04-25T00:26:54;4.50;;;4.10;;
2840;SDS011;53423;49.224;12.074;2023-04-25T00:29:24;4.70;;;4.30;;
2840;SDS011;53423;49.224;12.074;2023-04-25T00:31:52;4.33;;;4.03;;
2840;SDS011;53423;49.224;12.074;2023-04-25T00:34:19;5.47;;;4.10;;
2840;SDS011;53423;49.224;12.074;2023-04-25T00:36:47;4.43;;;4.13;;
2840;SDS011;53423;49.224;12.074;2023-04-25T00:39:15;3.80;;;3.50;;
2840;SDS011;53423;49.224;12.074;2023-04-25T00:41:43;4.13;;;3.63;;
2840;SDS011;53423;49.224;12.074;2023-04-25T00:44:12;5.03;;;3.60;;
2840;SDS011;53423;49.224;12.074;2023-04-25T00:46:44;4.27;;;3.80;;
2840;SDS011;53423;49.224;12.074;2023-04-25T00:49:14;4.50;;;3.97;;
2840;SDS011;53423;49.224;12.074;2023-04-25T00:51:43;4.40;;;4.10;;
2840;SDS011;53423;49.224;12.074;2023-04-25T00:54:12;4.70;;;4.20;;
2840;SDS011;53423;49.224;12.074;2023-04-25T00:56:40;4.70;;;4.30;;
2840;SDS011;53423;49.224;12.074;2023-04-25T00:59:09;4.53;;;4.10;;
2840;SDS011;53423;49.224;12.074;2023-04-25T01:01:37;6.03;;;4.50;;
2840;SDS011;53423;49.224;12.074;2023-04-25T01:04:07;4.07;;;3.77;;
2840;SDS011;53423;49.224;12.074;2023-04-25T01:06:36;4.37;;;4.07;;
2840;SDS011;53423;49.224;12.074;2023-04-25T01:09:04;4.90;;;4.00;;
2840;SDS011;53423;49.224;12.074;2023-04-25T01:11:32;4.13;;;3.83;;
2840;SDS011;53423;49.224;12.074;2023-04-25T01:14:00;4.60;;;4.20;;
2840;SDS011;53423;49.224;12.074;2023-04-25T01:16:28;4.67;;;4.00;;
2840;SDS011;53423;49.224;12.074;2023-04-25T01:18:57;4.77;;;4.37;;
2840;SDS011;53423;49.224;12.074;2023-04-25T01:21:26;5.53;;;4.30;;
2840;SDS011;53423;49.224;12.074;2023-04-25T01:23:56;6.17;;;4.20;;
2840;SDS011;53423;49.224;12.074;2023-04-25T01:26:24;3.97;;;3.67;;
2840;SDS011;53423;49.224;12.074;2023-04-25T01:28:52;4.33;;;3.93;;
2840;SDS011;53423;49.224;12.074;2023-04-25T01:31:21;4.30;;;3.90;;
2840;SDS011;53423;49.224;12.074;2023-04-25T01:33:49;5.13;;;4.67;;
2840;SDS011;53423;49.224;12.074;2023-04-25T01:36:18;4.70;;;3.80;;
2840;SDS011;53423;49.224;12.074;2023-04-25T01:38:47;4.90;;;4.50;;
2840;SDS011;53423;49.224;12.074;2023-04-25T01:41:19;6.97;;;4.23;;
2840;SDS011;53423;49.224;12.074;2023-04-25T01:43:49;4.67;;;4.27;;
2840;SDS011;53423;49.224;12.074;2023-04-25T01:46:17;6.93;;;4.67;;
2840;SDS011;53423;49.224;12.074;2023-04-25T01:48:45;4.70;;;4.30;;
2840;SDS011;53423;49.224;12.074;2023-04-25T01:51:14;5.00;;;4.53;;
2840;SDS011;53423;49.224;12.074;2023-04-25T01:53:42;5.50;;;4.80;;
2840;SDS011;53423;49.224;12.074;2023-04-25T01:56:12;5.80;;;4.30;;
2840;SDS011;53423;49.224;12.074;2023-04-25T01:58:40;4.20;;;3.90;;
2840;SDS011;53423;49.224;12.074;2023-04-25T02:01:07;5.23;;;4.50;;
2840;SDS011;53423;49.224;12.074;2023-04-25T02:03:35;4.90;;;4.40;;
2840;SDS011;53423;49.224;12.074;2023-04-25T02:06:04;4.73;;;4.33;;
2840;SDS011;53423;49.224;12.074;2023-04-25T02:08:32;6.23;;;4.43;;
2840;SDS011;53423;49.224;12.074;2023-04-25T02:11:00;4.87;;;4.47;;
2840;SDS011;53423;49.224;12.074;2023-04-25T02:13:30;4.97;;;4.40;;
2840;SDS011;53423;49.224;12.074;2023-04-25T02:15:58;4.63;;;4.23;;
2840;SDS011;53423;49.224;12.074;2023-04-25T02:18:26;4.47;;;4.17;;
2840;SDS011;53423;49.224;12.074;2023-04-25T02:20:54;4.80;;;4.40;;
2840;SDS011;53423;49.224;12.074;2023-04-25T02:23:22;5.07;;;4.53;;
2840;SDS011;53423;49.224;12.074;2023-04-25T02:25:51;4.20;;;3.80;;
2840;SDS011;53423;49.224;12.074;2023-04-25T02:28:21;4.87;;;4.40;;
2840;SDS011;53423;49.224;12.074;2023-04-25T02:30:50;4.50;;;3.97;;
2840;SDS011;53423;49.224;12.074;2023-04-25T02:33:18;4.70;;;4.30;;
2840;SDS011;53423;49.224;12.074;2023-04-25T02:35:47;4.67;;;4.27;;
2840;SDS011;53423;49.224;12.074;2023-04-25T02:38:15;4.10;;;3.80;;
2840;SDS011;53423;49.224;12.074;2023-04-25T02:40:43;5.27;;;4.43;;
2840;SDS011;53423;49.224;12.074;2023-04-25T02:43:11;4.57;;;4.27;;
2840;SDS011;53423;49.224;12.074;2023-04-25T02:45:39;4.70;;;4.30;;
2840;SDS011;53423;49.224;12.074;2023-04-25T02:48:08;4.20;;;3.90;;
2840;SDS011;53423;49.224;12.074;2023-04-25T02:50:36;4.60;;;4.20;;
2840;SDS011;53423;49.224;12.074;2023-04-25T02:53:04;4.33;;;3.93;;
2840;SDS011;53423;49.224;12.074;2023-04-25T02:55:31;4.40;;;4.00;;
2840;SDS011;53423;49.224;12.074;2023-04-25T02:57:59;4.00;;;3.70;;
2840;SDS011;53423;49.224;12.074;2023-04-25T03:00:27;4.73;;;4.03;;
2840;SDS011;53423;49.224;12.074;2023-04-25T03:02:55;3.70;;;3.40;;
2840;SDS011;53423;49.224;12.074;2023-04-25T03:05:25;3.87;;;3.57;;
2840;SDS011;53423;49.224;12.074;2023-04-25T03:07:53;4.53;;;4.13;;
2840;SDS011;53423;49.224;12.074;2023-04-25T03:10:21;4.37;;;4.03;;
2840;SDS011;53423;49.224;12.074;2023-04-25T03:12:48;4.03;;;3.73;;
2840;SDS011;53423;49.224;12.074;2023-04-25T03:15:16;4.43;;;3.90;;
2840;SDS011;53423;49.224;12.074;2023-04-25T03:17:44;4.10;;;3.80;;
2840;SDS011;53423;49.224;12.074;2023-04-25T03:20:12;4.67;;;4.20;;
2840;SDS011;53423;49.224;12.074;2023-04-25T03:22:42;4.87;;;4.37;;
2840;SDS011;53423;49.224;12.074;2023-04-25T03:25:10;4.10;;;3.80;;
2840;SDS011;53423;49.224;12.074;2023-04-25T03:27:38;3.87;;;3.57;;
2840;SDS011;53423;49.224;12.074;2023-04-25T03:30:06;4.13;;;3.73;;
2840;SDS011;53423;49.224;12.074;2023-04-25T03:32:35;5.10;;;3.93;;
2840;SDS011;53423;49.224;12.074;2023-04-25T03:35:03;4.40;;;4.00;;
2840;SDS011;53423;49.224;12.074;2023-04-25T03:37:31;4.53;;;4.13;;
2840;SDS011;53423;49.224;12.074;2023-04-25T03:40:01;4.00;;;3.47;;
2840;SDS011;53423;49.224;12.074;2023-04-25T03:42:30;4.10;;;3.77;;
2840;SDS011;53423;49.224;12.074;2023-04-25T03:44:58;4.30;;;3.97;;
2840;SDS011;53423;49.224;12.074;2023-04-25T03:47:26;3.93;;;3.60;;
2840;SDS011;53423;49.224;12.074;2023-04-25T03:49:54;5.20;;;3.93;;
2840;SDS011;53423;49.224;12.074;2023-04-25T03:52:21;4.37;;;3.93;;
2840;SDS011;53423;49.224;12.074;2023-04-25T03:54:49;3.90;;;3.60;;
2840;SDS011;53423;49.224;12.074;2023-04-25T03:57:19;4.20;;;3.80;;
2840;SDS011;53423;49.224;12.074;2023-04-25T03:59:46;4.50;;;4.10;;
2840;SDS011;53423;49.224;12.074;2023-04-25T04:02:14;4.97;;;3.90;;
2840;SDS011;53423;49.224;12.074;2023-04-25T04:04:42;4.23;;;3.80;;
2840;SDS011;53423;49.224;12.074;2023-04-25T04:07:12;4.20;;;3.80;;
2840;SDS011;53423;49.224;12.074;2023-04-25T04:09:40;4.47;;;4.07;;
2840;SDS011;53423;49.224;12.074;2023-04-25T04:12:07;4.37;;;3.97;;
2840;SDS011;53423;49.224;12.074;2023-04-25T04:14:37;4.27;;;3.90;;
2840;SDS011;53423;49.224;12.074;2023-04-25T04:17:05;3.90;;;3.60;;
2840;SDS011;53423;49.224;12.074;2023-04-25T04:19:33;4.03;;;3.73;;
2840;SDS011;53423;49.224;12.074;2023-04-25T04:22:01;3.73;;;3.43;;
2840;SDS011;53423;49.224;12.074;2023-04-25T04:24:29;4.00;;;3.70;;
2840;SDS011;53423;49.224;12.074;2023-04-25T04:26:57;3.70;;;3.40;;
2840;SDS011;53423;49.224;12.074;2023-04-25T04:29:25;4.03;;;3.57;;
2840;SDS011;53423;49.224;12.074;2023-04-25T04:31:54;5.27;;;3.97;;
2840;SDS011;53423;49.224;12.074;2023-04-25T04:34:23;4.10;;;3.80;;
2840;SDS011;53423;49.224;12.074;2023-04-25T04:36:52;4.20;;;3.80;;
2840;SDS011;53423;49.224;12.074;2023-04-25T04:39:20;3.97;;;3.67;;
2840;SDS011;53423;49.224;12.074;2023-04-25T04:41:48;4.20;;;3.80;;
2840;SDS011;53423;49.224;12.074;2023-04-25T04:44:17;3.90;;;3.50;;
2840;SDS011;53423;49.224;12.074;2023-04-25T04:46:45;4.00;;;3.70;;
2840;SDS011;53423;49.224;12.074;2023-04-25T04:49:14;4.00;;;3.70;;
2840;SDS011;53423;49.224;12.074;2023-04-25T04:51:42;4.13;;;3.83;;
2840;SDS011;53423;49.224;12.074;2023-04-25T04:54:11;4.17;;;3.60;;
2840;SDS011;53423;49.224;12.074;2023-04-25T04:56:39;4.53;;;4.13;;
2840;SDS011;53423;49.224;12.074;2023-04-25T04:59:08;4.17;;;3.77;;
2840;SDS011;53423;49.224;12.074;2023-04-25T05:01:36;3.80;;;3.50;;
2840;SDS011;53423;49.224;12.074;2023-04-25T05:04:04;3.97;;;3.67;;
2840;SDS011;53423;49.224;12.074;2023-04-25T05:06:35;4.13;;;3.63;;
2840;SDS011;53423;49.224;12.074;2023-04-25T05:09:02;4.20;;;3.90;;
2840;SDS011;53423;49.224;12.074;2023-04-25T05:11:31;4.40;;;4.00;;
2840;SDS011;53423;49.224;12.074;2023-04-25T05:13:58;4.60;;;4.20;;
2840;SDS011;53423;49.224;12.074;2023-04-25T05:16:26;4.00;;;3.70;;
2840;SDS011;53423;49.224;12.074;2023-04-25T05:18:54;4.00;;;3.70;;
2840;SDS011;53423;49.224;12.074;2023-04-25T05:21:22;4.83;;;3.80;;
2840;SDS011;53423;49.224;12.074;2023-04-25T05:23:51;4.30;;;3.90;;
2840;SDS011;53423;49.224;12.074;2023-04-25T05:26:19;5.47;;;3.83;;
2840;SDS011;53423;49.224;12.074;2023-04-25T05:28:47;5.30;;;3.63;;
2840;SDS011;53423;49.224;12.074;2023-04-25T05:31:17;4.17;;;3.77;;
2840;SDS011;53423;49.224;12.074;2023-04-25T05:33:45;4.27;;;3.97;;
2840;SDS011;53423;49.224;12.074;2023-04-25T05:36:13;3.73;;;3.40;;
2840;SDS011;53423;49.224;12.074;2023-04-25T05:38:41;3.87;;;3.20;;
2840;SDS011;53423;49.224;12.074;2023-04-25T05:41:10;3.23;;;3.03;;
2840;SDS011;53423;49.224;12.074;2023-04-25T05:43:38;4.73;;;3.97;;
2840;SDS011;53423;49.224;12.074;2023-04-25T05:46:11;3.80;;;3.50;;
2840;SDS011;53423;49.224;12.074;2023-04-25T05:48:39;3.60;;;3.30;;
2840;SDS011;53423;49.224;12.074;2023-04-25T05:51:07;3.53;;;3.23;;
2840;SDS011;53423;49.224;12.074;2023-04-25T05:53:35;3.33;;;3.03;;
2840;SDS011;53423;49.224;12.074;2023-04-25T05:56:03;2.80;;;2.60;;
2840;SDS011;53423;49.224;12.074;2023-04-25T05:58:33;2.90;;;2.60;;
2840;SDS011;53423;49.224;12.074;2023-04-25T06:01:01;2.80;;;2.50;;
2840;SDS011;53423;49.224;12.074;2023-04-25T06:03:29;2.80;;;2.60;;
2840;SDS011;53423;49.224;12.074;2023-04-25T06:05:57;3.30;;;3.00;;
2840;SDS011;53423;49.224;12.074;2023-04-25T06:08:26;3.10;;;2.90;;
2840;SDS011;53423;49.224;12.074;2023-04-25T06:10:53;3.17;;;2.87;;
2840;SDS011;53423;49.224;12.074;2023-04-25T06:13:21;3.50;;;2.60;;
2840;SDS011;53423;49.224;12.074;2023-04-25T06:15:51;3.23;;;3.03;;
2840;SDS011;53423;49.224;12.074;2023-04-25T06:18:18;3.30;;;3.00;;
2840;SDS011;53423;49.224;12.074;2023-04-25T06:20:46;3.10;;;2.90;;
2840;SDS011;53423;49.224;12.074;2023-04-25T06:23:14;4.97;;;3.47;;
2840;SDS011;53423;49.224;12.074;2023-04-25T06:25:42;4.27;;;3.30;;
2840;SDS011;53423;49.224;12.074;2023-04-25T06:28:10;3.53;;;3.27;;
2840;SDS011;53423;49.224;12.074;2023-04-25T06:30:38;3.70;;;3.40;;
2840;SDS011;53423;49.224;12.074;2023-04-25T06:33:08;3.90;;;3.50;;
2840;SDS011;53423;49.224;12.074;2023-04-25T06:35:36;3.63;;;3.33;;
2840;SDS011;53423;49.224;12.074;2023-04-25T06:38:03;3.20;;;3.00;;
2840;SDS011;53423;49.224;12.074;2023-04-25T06:40:31;3.77;;;3.30;;
2840;SDS011;53423;49.224;12.074;2023-04-25T06:42:59;3.60;;;3.30;;
2840;SDS011;53423;49.224;12.074;2023-04-25T06:45:27;3.60;;;3.30;;
2840;SDS011;53423;49.224;12.074;2023-04-25T06:47:55;3.40;;;3.20;;
2840;SDS011;53423;49.224;12.074;2023-04-25T06:50:24;3.70;;;3.40;;
2840;SDS011;53423;49.224;12.074;2023-04-25T06:52:52;3.83;;;3.40;;
2840;SDS011;53423;49.224;12.074;2023-04-25T06:55:20;3.70;;;3.40;;
2840;SDS011;53423;49.224;12.074;2023-04-25T06:57:48;3.60;;;3.30;;
2840;SDS011;53423;49.224;12.074;2023-04-25T07:00:16;3.60;;;3.30;;
2840;SDS011;53423;49.224;12.074;2023-04-25T07:02:45;3.63;;;3.33;;
2840;SDS011;53423;49.224;12.074;2023-04-25T07:05:13;3.33;;;3.03;;
2840;SDS011;53423;49.224;12.074;2023-04-25T07:07:45;3.50;;;3.20;;
2840;SDS011;53423;49.224;12.074;2023-04-25T07:10:13;3.70;;;3.27;;
2840;SDS011;53423;49.224;12.074;2023-04-25T07:12:41;3.70;;;3.40;;
2840;SDS011;53423;49.224;12.074;2023-04-25T07:15:09;3.77;;;3.47;;
2840;SDS011;53423;49.224;12.074;2023-04-25T07:17:37;3.80;;;3.50;;
2840;SDS011;53423;49.224;12.074;2023-04-25T07:20:06;3.17;;;2.87;;
2840;SDS011;53423;49.224;12.074;2023-04-25T07:22:35;3.50;;;3.20;;
2840;SDS011;53423;49.224;12.074;2023-04-25T07:25:05;2.90;;;2.70;;
2840;SDS011;53423;49.224;12.074;2023-04-25T07:27:34;3.00;;;2.80;;
2840;SDS011;53423;49.224;12.074;2023-04-25T07:30:02;3.30;;;3.00;;
2840;SDS011;53423;49.224;12.074;2023-04-25T07:32:31;3.13;;;2.90;;
2840;SDS011;53423;49.224;12.074;2023-04-25T07:34:59;3.27;;;3.00;;
2840;SDS011;53423;49.224;12.074;2023-04-25T07:37:28;3.37;;;3.10;;
2840;SDS011;53423;49.224;12.074;2023-04-25T07:39:55;4.63;;;4.20;;
2840;SDS011;53423;49.224;12.074;2023-04-25T07:42:25;4.63;;;4.10;;
2840;SDS011;53423;49.224;12.074;2023-04-25T07:44:53;4.47;;;4.07;;
2840;SDS011;53423;49.224;12.074;2023-04-25T07:47:21;4.07;;;3.77;;
2840;SDS011;53423;49.224;12.074;2023-04-25T07:49:49;4.10;;;3.70;;
2840;SDS011;53423;49.224;12.074;2023-04-25T07:52:17;3.60;;;3.30;;
2840;SDS011;53423;49.224;12.074;2023-04-25T07:54:44;5.23;;;3.40;;
2840;SDS011;53423;49.224;12.074;2023-04-25T07:57:13;3.70;;;3.40;;
2840;SDS011;53423;49.224;12.074;2023-04-25T07:59:44;4.07;;;3.67;;
2840;SDS011;53423;49.224;12.074;2023-04-25T08:02:12;3.90;;;3.60;;
2840;SDS011;53423;49.224;12.074;2023-04-25T08:04:40;3.80;;;3.50;;
2840;SDS011;53423;49.224;12.074;2023-04-25T08:07:08;4.17;;;3.87;;
2840;SDS011;53423;49.224;12.074;2023-04-25T08:09:37;5.07;;;4.57;;
2840;SDS011;53423;49.224;12.074;2023-04-25T08:12:05;4.47;;;3.80;;
2840;SDS011;53423;49.224;12.074;2023-04-25T08:14:33;3.73;;;3.43;;
2840;SDS011;53423;49.224;12.074;2023-04-25T08:17:05;3.70;;;3.40;;
2840;SDS011;53423;49.224;12.074;2023-04-25T08:19:33;4.30;;;4.00;;
2840;SDS011;53423;49.224;12.074;2023-04-25T08:22:01;4.00;;;3.70;;
2840;SDS011;53423;49.224;12.074;2023-04-25T08:24:29;4.70;;;4.30;;
2840;SDS011;53423;49.224;12.074;2023-04-25T08:26:56;4.90;;;4.50;;
2840;SDS011;53423;49.224;12.074;2023-04-25T08:29:25;4.07;;;3.73;;
2840;SDS011;53423;49.224;12.074;2023-04-25T08:31:54;4.13;;;3.67;;
2840;SDS011;53423;49.224;12.074;2023-04-25T08:34:24;3.60;;;3.30;;
2840;SDS011;53423;49.224;12.074;2023-04-25T08:36:52;3.87;;;3.57;;
2840;SDS011;53423;49.224;12.074;2023-04-25T08:39:20;4.60;;;3.60;;
2840;SDS011;53423;49.224;12.074;2023-04-25T08:41:48;3.77;;;3.47;;
2840;SDS011;53423;49.224;12.074;2023-04-25T08:44:16;3.20;;;3.00;;
2840;SDS011;53423;49.224;12.074;2023-04-25T08:46:44;3.57;;;3.27;;
2840;SDS011;53423;49.224;12.074;2023-04-25T08:49:16;4.23;;;3.83;;
2840;SDS011;53423;49.224;12.074;2023-04-25T08:51:46;3.70;;;3.40;;
2840;SDS011;53423;49.224;12.074;2023-04-25T08:54:16;3.90;;;3.60;;
2840;SDS011;53423;49.224;12.074;2023-04-25T08:57:01;3.73;;;3.33;;
2840;SDS011;53423;49.224;12.074;2023-04-25T08:59:31;3.90;;;3.60;;
2840;SDS011;53423;49.224;12.074;2023-04-25T09:02:01;4.00;;;3.70;;
2840;SDS011;53423;49.224;12.074;2023-04-25T09:04:30;4.03;;;3.73;;
2840;SDS011;53423;49.224;12.074;2023-04-25T09:07:00;4.13;;;3.73;;
2840;SDS011;53423;49.224;12.074;2023-04-25T09:09:29;4.27;;;3.97;;
2840;SDS011;53423;49.224;12.074;2023-04-25T09:11:57;4.73;;;3.83;;
2840;SDS011;53423;49.224;12.074;2023-04-25T09:14:25;4.10;;;3.80;;
2840;SDS011;53423;49.224;12.074;2023-04-25T09:16:56;4.10;;;3.73;;
2840;SDS011;53423;49.224;12.074;2023-04-25T09:19:27;3.70;;;3.40;;
2840;SDS011;53423;49.224;12.074;2023-04-25T09:22:01;3.90;;;3.60;;
2840;SDS011;53423;49.224;12.074;2023-04-25T09:24:30;3.60;;;3.30;;
2840;SDS011;53423;49.224;12.074;2023-04-25T09:27:05;2.80;;;2.60;;
2840;SDS011;53423;49.224;12.074;2023-04-25T09:29:35;3.87;;;2.90;;
2840;SDS011;53423;49.224;12.074;2023-04-25T09:32:10;2.80;;;2.60;;
2840;SDS011;53423;49.224;12.074;2023-04-25T09:34:43;2.93;;;2.73;;
2840;SDS011;53423;49.224;12.074;2023-04-25T09:37:18;3.20;;;3.00;;
2840;SDS011;53423;49.224;12.074;2023-04-25T09:39:48;2.73;;;2.53;;
2840;SDS011;53423;49.224;12.074;2023-04-25T09:42:17;2.70;;;2.50;;
2840;SDS011;53423;49.224;12.074;2023-04-25T09:44:46;3.00;;;2.70;;
2840;SDS011;53423;49.224;12.074;2023-04-25T09:47:15;3.20;;;2.90;;
2840;SDS011;53423;49.224;12.074;2023-04-25T09:49:44;2.77;;;2.57;;
2840;SDS011;53423;49.224;12.074;2023-04-25T09:52:15;3.10;;;2.90;;
2840;SDS011;53423;49.224;12.074;2023-04-25T09:54:45;2.87;;;2.60;;
2840;SDS011;53423;49.224;12.074;2023-04-25T09:57:15;3.17;;;2.67;;
2840;SDS011;53423;49.224;12.074;2023-04-25T09:59:44;3.20;;;2.90;;
2840;SDS011;53423;49.224;12.074;2023-04-25T10:02:15;3.30;;;3.00;;
2840;SDS011;53423;49.224;12.074;2023-04-25T10:04:46;2.93;;;2.73;;
2840;SDS011;53423;49.224;12.074;2023-04-25T10:07:19;2.90;;;2.70;;
2840;SDS011;53423;49.224;12.074;2023-04-25T10:09:49;3.50;;;2.57;;
2840;SDS011;53423;49.224;12.074;2023-04-25T10:12:22;2.63;;;2.43;;
2840;SDS011;53423;49.224;12.074;2023-04-25T10:14:50;2.50;;;2.40;;
2840;SDS011;53423;49.224;12.074;2023-04-25T10:17:20;2.17;;;1.97;;
2840;SDS011;53423;49.224;12.074;2023-04-25T10:19:48;1.70;;;1.60;;
2840;SDS011;53423;49.224;12.074;2023-04-25T10:22:17;3.03;;;1.73;;
2840;SDS011;53423;49.224;12.074;2023-04-25T10:24:50;1.80;;;1.70;;
2840;SDS011;53423;49.224;12.074;2023-04-25T10:27:19;1.47;;;1.37;;
2840;SDS011;53423;49.224;12.074;2023-04-25T10:29:51;1.50;;;1.40;;
2840;SDS011;53423;49.224;12.074;2023-04-25T10:32:30;1.77;;;1.67;;
2840;SDS011;53423;49.224;12.074;2023-04-25T10:35:09;1.93;;;1.83;;
2840;SDS011;53423;49.224;12.074;2023-04-25T10:37:39;1.77;;;1.67;;
2840;SDS011;53423;49.224;12.074;2023-04-25T10:40:25;1.50;;;1.40;;
2840;SDS011;53423;49.224;12.074;2023-04-25T10:42:54;1.38;;;1.27;;
2840;SDS011;53423;49.224;12.074;2023-04-25T10:45:22;1.85;;;1.75;;
2840;SDS011;53423;49.224;12.074;2023-04-25T10:47:50;2.10;;;1.90;;
2840;SDS011;53423;49.224;12.074;2023-04-25T10:50:18;1.50;;;1.40;;
2840;SDS011;53423;49.224;12.074;2023-04-25T10:52:47;1.50;;;1.40;;
2840;SDS011;53423;49.224;12.074;2023-04-25T10:55:15;1.75;;;1.52;;
2840;SDS011;53423;49.224;12.074;2023-04-25T10:57:44;2.10;;;1.75;;
2840;SDS011;53423;49.224;12.074;2023-04-25T11:00:15;1.98;;;1.88;;
2840;SDS011;53423;49.224;12.074;2023-04-25T11:02:45;2.17;;;2.07;;
2840;SDS011;53423;49.224;12.074;2023-04-25T11:05:27;2.27;;;2.07;;
2840;SDS011;53423;49.224;12.074;2023-04-25T11:08:06;2.30;;;2.20;;
2840;SDS011;53423;49.224;12.074;2023-04-25T11:10:40;2.27;;;2.07;;
2840;SDS011;53423;49.224;12.074;2023-04-25T11:13:08;2.37;;;2.17;;
2840;SDS011;53423;49.224;12.074;2023-04-25T11:15:36;2.17;;;2.07;;
2840;SDS011;53423;49.224;12.074;2023-04-25T11:18:04;2.50;;;2.30;;
2840;SDS011;53423;49.224;12.074;2023-04-25T11:20:35;2.27;;;2.07;;
2840;SDS011;53423;49.224;12.074;2023-04-25T11:23:02;2.30;;;2.07;;
2840;SDS011;53423;49.224;12.074;2023-04-25T11:25:32;2.57;;;2.10;;
2840;SDS011;53423;49.224;12.074;2023-04-25T11:28:03;2.90;;;2.47;;
2840;SDS011;53423;49.224;12.074;2023-04-25T11:30:31;1.93;;;1.83;;
2840;SDS011;53423;49.224;12.074;2023-04-25T11:32:59;2.60;;;2.40;;
2840;SDS011;53423;49.224;12.074;2023-04-25T11:35:29;2.17;;;2.07;;
2840;SDS011;53423;49.224;12.074;2023-04-25T11:37:57;2.97;;;2.03;;
2840;SDS011;53423;49.224;12.074;2023-04-25T11:40:26;2.30;;;2.10;;
2840;SDS011;53423;49.224;12.074;2023-04-25T11:42:54;2.87;;;2.23;;
2840;SDS011;53423;49.224;12.074;2023-04-25T11:45:31;1.53;;;1.43;;
2840;SDS011;53423;49.224;12.074;2023-04-25T11:47:59;2.03;;;1.70;;
2840;SDS011;53423;49.224;12.074;2023-04-25T11:50:28;2.20;;;2.00;;
2840;SDS011;53423;49.224;12.074;2023-04-25T11:52:56;2.60;;;1.90;;
2840;SDS011;53423;49.224;12.074;2023-04-25T11:55:26;1.70;;;1.60;;
2840;SDS011;53423;49.224;12.074;2023-04-25T11:57:59;2.30;;;2.17;;
2840;SDS011;53423;49.224;12.074;2023-04-25T12:00:28;2.40;;;2.20;;
2840;SDS011;53423;49.224;12.074;2023-04-25T12:02:57;2.33;;;1.87;;
2840;SDS011;53423;49.224;12.074;2023-04-25T12:05:26;2.23;;;2.03;;
2840;SDS011;53423;49.224;12.074;2023-04-25T12:08:12;2.40;;;2.20;;
2840;SDS011;53423;49.224;12.074;2023-04-25T12:10:42;2.33;;;2.07;;
2840;SDS011;53423;49.224;12.074;2023-04-25T12:13:19;2.37;;;2.17;;
2840;SDS011;53423;49.224;12.074;2023-04-25T12:15:48;1.87;;;1.77;;
2840;SDS011;53423;49.224;12.074;2023-04-25T12:18:18;2.17;;;1.97;;
2840;SDS011;53423;49.224;12.074;2023-04-25T12:20:47;2.10;;;2.00;;
2840;SDS011;53423;49.224;12.074;2023-04-25T12:23:15;3.37;;;2.23;;
2840;SDS011;53423;49.224;12.074;2023-04-25T12:25:44;2.43;;;2.20;;
2840;SDS011;53423;49.224;12.074;2023-04-25T12:28:14;2.70;;;2.07;;
2840;SDS011;53423;49.224;12.074;2023-04-25T12:30:53;2.50;;;2.20;;
2840;SDS011;53423;49.224;12.074;2023-04-25T12:33:21;3.07;;;2.33;;
2840;SDS011;53423;49.224;12.074;2023-04-25T12:35:49;3.43;;;2.37;;
2840;SDS011;53423;49.224;12.074;2023-04-25T12:38:21;2.57;;;2.37;;
2840;SDS011;53423;49.224;12.074;2023-04-25T12:40:51;2.93;;;2.13;;
2840;SDS011;53423;49.224;12.074;2023-04-25T12:43:19;2.23;;;2.03;;
2840;SDS011;53423;49.224;12.074;2023-04-25T12:45:48;2.47;;;2.30;;
2840;SDS011;53423;49.224;12.074;2023-04-25T12:48:17;2.27;;;2.07;;
2840;SDS011;53423;49.224;12.074;2023-04-25T12:50:45;3.13;;;2.00;;
2840;SDS011;53423;49.224;12.074;2023-04-25T12:53:15;2.30;;;2.10;;
2840;SDS011;53423;49.224;12.074;2023-04-25T12:55:43;2.30;;;2.10;;
2840;SDS011;53423;49.224;12.074;2023-04-25T12:58:13;1.97;;;1.87;;
2840;SDS011;53423;49.224;12.074;2023-04-25T13:00:41;3.17;;;2.50;;
2840;SDS011;53423;49.224;12.074;2023-04-25T13:03:09;2.30;;;2.10;;
2840;SDS011;53423;49.224;12.074;2023-04-25T13:05:39;2.30;;;2.10;;
2840;SDS011;53423;49.224;12.074;2023-04-25T13:08:07;2.20;;;2.00;;
2840;SDS011;53423;49.224;12.074;2023-04-25T13:10:35;2.33;;;2.10;;
2840;SDS011;53423;49.224;12.074;2023-04-25T13:13:05;2.17;;;1.97;;
2840;SDS011;53423;49.224;12.074;2023-04-25T13:15:34;3.23;;;2.20;;
2840;SDS011;53423;49.224;12.074;2023-04-25T13:18:02;2.00;;;1.87;;
2840;SDS011;53423;49.224;12.074;2023-04-25T13:20:32;2.53;;;2.10;;
2840;SDS011;53423;49.224;12.074;2023-04-25T13:22:59;2.87;;;2.27;;
2840;SDS011;53423;49.224;12.074;2023-04-25T13:25:28;2.33;;;1.80;;
2840;SDS011;53423;49.224;12.074;2023-04-25T13:27:56;2.17;;;1.97;;
2840;SDS011;53423;49.224;12.074;2023-04-25T13:30:24;2.90;;;2.07;;
2840;SDS011;53423;49.224;12.074;2023-04-25T13:32:54;2.57;;;2.30;;
2840;SDS011;53423;49.224;12.074;2023-04-25T13:35:23;3.03;;;2.20;;
2840;SDS011;53423;49.224;12.074;2023-04-25T13:37:52;2.83;;;2.00;;
2840;SDS011;53423;49.224;12.074;2023-04-25T13:40:19;2.00;;;1.90;;
2840;SDS011;53423;49.224;12.074;2023-04-25T13:42:50;2.73;;;2.47;;
2840;SDS011;53423;49.224;12.074;2023-04-25T13:45:21;2.33;;;2.13;;
2840;SDS011;53423;49.224;12.074;2023-04-25T13:47:49;2.70;;;2.50;;
2840;SDS011;53423;49.224;12.074;2023-04-25T13:50:19;2.50;;;1.97;;
2840;SDS011;53423;49.224;12.074;2023-04-25T13:52:47;3.47;;;2.20;;
2840;SDS011;53423;49.224;12.074;2023-04-25T13:55:15;2.50;;;2.30;;
2840;SDS011;53423;49.224;12.074;2023-04-25T13:57:42;3.17;;;2.23;;
2840;SDS011;53423;49.224;12.074;2023-04-25T14:00:12;2.60;;;2.40;;
2840;SDS011;53423;49.224;12.074;2023-04-25T14:02:40;3.33;;;3.03;;
2840;SDS011;53423;49.224;12.074;2023-04-25T14:05:09;2.37;;;2.17;;
2840;SDS011;53423;49.224;12.074;2023-04-25T14:07:38;2.33;;;1.80;;
2840;SDS011;53423;49.224;12.074;2023-04-25T14:10:06;1.70;;;1.60;;
2840;SDS011;53423;49.224;12.074;2023-04-25T14:12:34;2.10;;;1.57;;
2840;SDS011;53423;49.224;12.074;2023-04-25T14:15:02;2.17;;;1.43;;
2840;SDS011;53423;49.224;12.074;2023-04-25T14:17:31;2.03;;;1.50;;
2840;SDS011;53423;49.224;12.074;2023-04-25T14:19:59;1.60;;;1.50;;
2840;SDS011;53423;49.224;12.074;2023-04-25T14:22:27;1.33;;;1.23;;
2840;SDS011;53423;49.224;12.074;2023-04-25T14:24:56;1.53;;;1.40;;
2840;SDS011;53423;49.224;12.074;2023-04-25T14:27:24;2.17;;;1.97;;
2840;SDS011;53423;49.224;12.074;2023-04-25T14:29:54;1.77;;;1.47;;
2840;SDS011;53423;49.224;12.074;2023-04-25T14:32:22;2.10;;;1.40;;
2840;SDS011;53423;49.224;12.074;2023-04-25T14:34:50;1.40;;;1.30;;
2840;SDS011;53423;49.224;12.074;2023-04-25T14:37:18;1.33;;;1.23;;
2840;SDS011;53423;49.224;12.074;2023-04-25T14:39:46;1.63;;;1.40;;
2840;SDS011;53423;49.224;12.074;2023-04-25T14:42:15;2.30;;;1.30;;
2840;SDS011;53423;49.224;12.074;2023-04-25T14:44:43;1.40;;;1.30;;
2840;SDS011;53423;49.224;12.074;2023-04-25T14:47:11;1.60;;;1.40;;
2840;SDS011;53423;49.224;12.074;2023-04-25T14:49:39;1.50;;;1.40;;
2840;SDS011;53423;49.224;12.074;2023-04-25T14:52:07;1.40;;;1.30;;
2840;SDS011;53423;49.224;12.074;2023-04-25T14:54:35;1.40;;;1.30;;
2840;SDS011;53423;49.224;12.074;2023-04-25T14:57:03;1.33;;;1.23;;
2840;SDS011;53423;49.224;12.074;2023-04-25T14:59:32;1.60;;;1.50;;